createdAt,value
2023-05-19T00:00:29.788Z,98325.28
2023-05-19T00:03:01.729Z,98317.44
2023-05-19T00:05:31.727Z,98328.81
2023-05-19T00:08:04.405Z,98325.56
2023-05-19T00:10:34.333Z,98335.03
2023-05-19T00:13:04.189Z,98334.81
2023-05-19T00:15:33.985Z,98327.69
2023-05-19T00:18:03.870Z,98333.44
2023-05-19T00:20:33.645Z,98332.72
2023-05-19T00:23:03.515Z,98337.13
2023-05-19T00:25:32.711Z,98328.47
2023-05-19T00:28:03.768Z,98337.22
2023-05-19T00:30:33.579Z,98341.16
2023-05-19T00:33:02.997Z,98339.34
2023-05-19T00:35:32.540Z,98339.75
2023-05-19T00:38:01.828Z,98337.25
2023-05-19T00:40:33.123Z,98344.78
2023-05-19T00:43:02.571Z,98338.25
2023-05-19T00:45:32.170Z,98342.06
2023-05-19T00:48:01.513Z,98343.16
2023-05-19T00:50:31.437Z,98345.69
2023-05-19T00:53:00.935Z,98342.16
2023-05-19T00:55:32.640Z,98352.34
2023-05-19T00:58:02.923Z,98348.22
2023-05-19T01:00:33.495Z,98349.84
2023-05-19T01:03:04.078Z,98357.88
2023-05-19T01:05:33.722Z,98348.81
2023-05-19T01:08:02.985Z,98359.38
2023-05-19T01:10:32.574Z,98351.75
2023-05-19T01:13:03.748Z,98336.53
2023-05-19T01:15:41.834Z,98337.81
2023-05-19T01:18:18.183Z,98344.16
2023-05-19T01:21:00.378Z,98347.03
2023-05-19T01:23:55.513Z,98346.34
2023-05-19T01:26:51.217Z,98344.28
2023-05-19T01:30:05.005Z,98340.66
2023-05-19T01:32:36.130Z,98344.91
2023-05-19T01:35:07.963Z,98347.19
2023-05-19T01:37:40.518Z,98348.97
2023-05-19T01:40:12.718Z,98350.84
2023-05-19T01:42:43.142Z,98350.03
2023-05-19T01:45:14.600Z,98353.91
2023-05-19T01:47:46.345Z,98353.34
2023-05-19T01:50:16.427Z,98352.13
2023-05-19T01:52:45.658Z,98352.41
2023-05-19T01:55:15.073Z,98357.56
2023-05-19T01:58:02.962Z,98360.47
2023-05-19T02:00:42.558Z,98359.91
2023-05-19T02:03:17.777Z,98356.31
2023-05-19T02:05:59.368Z,98360.38
2023-05-19T02:08:34.319Z,98358.38
2023-05-19T02:11:13.419Z,98361.41
2023-05-19T02:13:51.021Z,98364.63
2023-05-19T02:16:26.638Z,98357.16
2023-05-19T02:18:58.409Z,98355.03
2023-05-19T02:21:28.817Z,98351.34
2023-05-19T02:23:57.993Z,98351.97
2023-05-19T02:26:27.568Z,98355.44
2023-05-19T02:28:56.878Z,98355.91
2023-05-19T02:31:26.880Z,98356.50
2023-05-19T02:33:58.201Z,98348.03
2023-05-19T02:36:27.917Z,98361.69
2023-05-19T02:38:57.253Z,98359.47
2023-05-19T02:41:27.322Z,98364.81
2023-05-19T02:43:57.197Z,98369.31
2023-05-19T02:46:26.486Z,98365.44
2023-05-19T02:48:56.529Z,98365.50
2023-05-19T02:51:25.870Z,98366.88
2023-05-19T02:53:55.258Z,98370.91
2023-05-19T02:56:25.403Z,98377.94
2023-05-19T02:58:55.463Z,98375.28
2023-05-19T03:01:24.869Z,98374.66
2023-05-19T03:03:54.436Z,98377.22
2023-05-19T03:06:24.731Z,98372.34
2023-05-19T03:08:54.088Z,98368.56
2023-05-19T03:11:24.345Z,98374.56
2023-05-19T03:13:54.471Z,98368.66
2023-05-19T03:16:23.689Z,98364.63
2023-05-19T03:18:53.553Z,98366.88
2023-05-19T03:21:22.963Z,98371.03
2023-05-19T03:23:52.600Z,98358.72
2023-05-19T03:26:24.316Z,98357.66
2023-05-19T03:28:53.991Z,98365.19
2023-05-19T03:31:24.201Z,98371.47
2023-05-19T03:33:53.550Z,98359.34
2023-05-19T03:36:23.949Z,98370.53
2023-05-19T03:38:53.702Z,98360.97
2023-05-19T03:41:23.364Z,98371.91
2023-05-19T03:43:53.296Z,98368.75
2023-05-19T03:46:25.997Z,98378.94
2023-05-19T03:49:25.418Z,98374.19
2023-05-19T03:52:14.031Z,98369.09
2023-05-19T03:54:57.114Z,98364.84
2023-05-19T03:57:26.544Z,98367.81
2023-05-19T03:59:55.999Z,98365.56
2023-05-19T04:02:25.524Z,98369.00
2023-05-19T04:04:55.354Z,98369.44
2023-05-19T04:07:24.869Z,98373.22
2023-05-19T04:09:54.273Z,98373.66
2023-05-19T04:12:23.797Z,98367.00
2023-05-19T04:14:55.182Z,98368.88
2023-05-19T04:17:30.361Z,98369.34
2023-05-19T04:20:00.296Z,98363.88
2023-05-19T04:22:30.552Z,98364.63
2023-05-19T04:25:01.372Z,98365.66
2023-05-19T04:27:32.999Z,98357.13
2023-05-19T04:30:02.368Z,98355.13
2023-05-19T04:32:32.695Z,98353.84
2023-05-19T04:35:09.449Z,98352.94
2023-05-19T04:37:40.311Z,98357.31
2023-05-19T04:40:12.201Z,98340.44
2023-05-19T04:42:44.224Z,98340.19
2023-05-19T04:45:15.041Z,98352.34
2023-05-19T04:47:49.365Z,98351.44
2023-05-19T04:50:18.737Z,98350.75
2023-05-19T04:52:47.946Z,98349.56
2023-05-19T04:55:18.426Z,98346.88
2023-05-19T04:57:49.193Z,98343.41
2023-05-19T05:00:20.031Z,98345.81
2023-05-19T05:03:00.785Z,98347.81
2023-05-19T05:05:33.094Z,98350.25
2023-05-19T05:08:03.103Z,98354.72
2023-05-19T05:10:37.986Z,98358.13
2023-05-19T05:13:09.972Z,98355.06
2023-05-19T05:15:42.074Z,98349.41
2023-05-19T05:18:13.220Z,98346.84
2023-05-19T05:20:44.814Z,98347.28
2023-05-19T05:23:17.958Z,98342.94
2023-05-19T05:25:49.889Z,98344.72
2023-05-19T05:28:21.264Z,98336.47
2023-05-19T05:30:51.346Z,98342.84
2023-05-19T05:33:20.857Z,98341.13
2023-05-19T05:35:51.650Z,98342.19
2023-05-19T05:38:23.779Z,98345.69
2023-05-19T05:40:56.223Z,98339.84
2023-05-19T05:43:25.698Z,98333.44
2023-05-19T05:46:00.390Z,98341.97
2023-05-19T05:48:30.120Z,98342.94
2023-05-19T05:51:01.601Z,98338.94
2023-05-19T05:53:38.470Z,98337.34
2023-05-19T05:56:09.770Z,98341.34
2023-05-19T05:58:47.730Z,98342.19
2023-05-19T06:01:19.023Z,98348.84
2023-05-19T06:03:48.447Z,98354.72
2023-05-19T06:06:22.558Z,98331.06
2023-05-19T06:08:53.662Z,98337.38
2023-05-19T06:11:24.719Z,98344.16
2023-05-19T06:13:55.863Z,98346.75
2023-05-19T06:17:03.728Z,98338.72
2023-05-19T06:19:33.895Z,98332.69
2023-05-19T06:22:03.323Z,98324.94
2023-05-19T06:24:33.290Z,98324.69
2023-05-19T06:27:02.682Z,98322.41
2023-05-19T06:29:32.168Z,98317.72
2023-05-19T06:32:05.028Z,98323.72
2023-05-19T06:34:34.646Z,98306.47
2023-05-19T06:37:04.190Z,98315.25
2023-05-19T06:39:35.663Z,98309.41
2023-05-19T06:42:05.404Z,98303.63
2023-05-19T06:44:57.980Z,98302.03
2023-05-19T06:47:28.465Z,98305.94
2023-05-19T06:49:59.087Z,98312.75
2023-05-19T06:52:32.360Z,98316.13
2023-05-19T06:55:04.057Z,98298.41
2023-05-19T06:57:35.322Z,98297.69
2023-05-19T07:00:08.109Z,98288.56
2023-05-19T07:02:37.955Z,98296.53
2023-05-19T07:05:09.443Z,98283.53
2023-05-19T07:07:39.035Z,98282.41
2023-05-19T07:10:13.531Z,98286.50
2023-05-19T07:12:43.163Z,98288.50
2023-05-19T07:15:12.968Z,98286.69
2023-05-19T07:17:42.953Z,98281.81
2023-05-19T07:20:13.354Z,98273.84
2023-05-19T07:22:42.757Z,98271.91
2023-05-19T07:25:11.993Z,98267.47
2023-05-19T07:27:42.512Z,98265.97
2023-05-19T07:30:12.256Z,98265.25
2023-05-19T07:32:42.402Z,98266.91
2023-05-19T07:35:11.687Z,98257.38
2023-05-19T07:37:41.354Z,98257.19
2023-05-19T07:40:11.542Z,98264.53
2023-05-19T07:42:40.883Z,98258.19
2023-05-19T07:45:10.957Z,98256.63
2023-05-19T07:47:40.462Z,98250.91
2023-05-19T07:50:10.183Z,98246.47
2023-05-19T07:52:40.105Z,98249.84
2023-05-19T07:55:09.416Z,98241.91
2023-05-19T07:57:39.210Z,98234.16
2023-05-19T08:00:12.903Z,98234.59
2023-05-19T08:02:43.462Z,98227.00
2023-05-19T08:05:13.052Z,98219.59
2023-05-19T08:07:42.576Z,98218.94
2023-05-19T08:10:11.920Z,98207.66
2023-05-19T08:12:41.250Z,98201.91
2023-05-19T08:15:12.721Z,98206.69
2023-05-19T08:17:42.234Z,98193.16
2023-05-19T08:20:15.269Z,98189.63
2023-05-19T08:22:45.170Z,98194.50
2023-05-19T08:25:14.974Z,98189.88
2023-05-19T08:27:44.308Z,98184.59
2023-05-19T08:30:14.258Z,98183.78
2023-05-19T08:32:43.817Z,98176.28
2023-05-19T08:35:13.054Z,98170.28
2023-05-19T08:37:42.531Z,98169.59
2023-05-19T08:40:20.122Z,98163.25
2023-05-19T08:42:50.430Z,98159.09
2023-05-19T08:45:19.905Z,98162.84
2023-05-19T08:47:50.703Z,98162.94
2023-05-19T08:50:30.181Z,98158.13
2023-05-19T08:53:07.186Z,98149.47
2023-05-19T08:55:54.349Z,98145.53
2023-05-19T08:58:24.739Z,98143.00
2023-05-19T09:00:55.322Z,98140.44
2023-05-19T09:03:27.696Z,98140.63
2023-05-19T09:05:57.063Z,98134.81
2023-05-19T09:08:26.428Z,98133.22
2023-05-19T09:10:55.829Z,98123.78
2023-05-19T09:13:25.699Z,98131.19
2023-05-19T09:15:55.343Z,98137.56
2023-05-19T09:18:29.416Z,98124.50
2023-05-19T09:21:06.290Z,98122.91
2023-05-19T09:23:36.077Z,98113.25
2023-05-19T09:26:10.024Z,98112.88
2023-05-19T09:28:39.618Z,98107.56
2023-05-19T09:31:10.484Z,98099.28
2023-05-19T09:33:44.313Z,98098.94
2023-05-19T09:36:15.667Z,98093.06
2023-05-19T09:38:47.295Z,98099.84
2023-05-19T09:41:17.472Z,98095.50
2023-05-19T09:43:57.541Z,98087.22
2023-05-19T09:46:34.235Z,98089.16
2023-05-19T09:49:14.163Z,98083.94
2023-05-19T09:51:43.938Z,98076.44
2023-05-19T09:54:19.775Z,98081.84
2023-05-19T09:56:58.554Z,98072.72
2023-05-19T09:59:32.286Z,98059.56
2023-05-19T10:02:03.708Z,98067.59
2023-05-19T10:04:33.528Z,98071.19
2023-05-19T10:07:06.565Z,98070.03
2023-05-19T10:09:39.733Z,98062.78
2023-05-19T10:12:13.231Z,98056.88
2023-05-19T10:14:42.937Z,98053.53
2023-05-19T10:17:13.736Z,98046.13
2023-05-19T10:19:45.963Z,98055.56
2023-05-19T10:22:15.679Z,98044.53
2023-05-19T10:24:53.106Z,98039.34
2023-05-19T10:27:24.005Z,98042.09
2023-05-19T10:29:56.456Z,98040.78
2023-05-19T10:32:30.989Z,98025.78
2023-05-19T10:35:19.201Z,98033.56
2023-05-19T10:38:01.139Z,98037.88
2023-05-19T10:40:42.964Z,98042.59
2023-05-19T10:43:13.007Z,98041.78
2023-05-19T10:45:55.001Z,98033.94
2023-05-19T10:48:24.826Z,98050.91
2023-05-19T10:50:58.675Z,98042.66
2023-05-19T10:53:36.338Z,98035.56
2023-05-19T10:56:08.118Z,98040.19
2023-05-19T10:58:46.929Z,98033.13
2023-05-19T11:01:25.878Z,98040.19
2023-05-19T11:03:58.376Z,98037.75
2023-05-19T11:06:33.216Z,98044.16
2023-05-19T11:09:13.012Z,98028.81
2023-05-19T11:11:56.316Z,98026.84
2023-05-19T11:14:28.712Z,98037.06
2023-05-19T11:17:00.444Z,98018.19
2023-05-19T11:19:39.345Z,98026.78
2023-05-19T11:22:14.141Z,98020.47
2023-05-19T11:24:54.574Z,98030.59
2023-05-19T11:27:34.869Z,98031.44
2023-05-19T11:30:11.024Z,98027.53
2023-05-19T11:32:43.396Z,98024.31
2023-05-19T11:35:14.038Z,98026.66
2023-05-19T11:37:44.534Z,98018.78
2023-05-19T11:40:16.936Z,98022.63
2023-05-19T11:42:46.702Z,98015.50
2023-05-19T11:45:16.087Z,98013.94
2023-05-19T11:48:01.178Z,98013.06
2023-05-19T11:50:33.558Z,98014.19
2023-05-19T11:53:03.332Z,98005.16
2023-05-19T11:55:33.820Z,98006.25
2023-05-19T11:58:05.869Z,98007.72
2023-05-19T12:00:46.934Z,97999.66
2023-05-19T12:03:16.889Z,97998.06
2023-05-19T12:05:47.957Z,98003.22
2023-05-19T12:08:22.785Z,97997.28
2023-05-19T12:10:53.713Z,98001.44
2023-05-19T12:13:24.592Z,98000.59
2023-05-19T12:15:54.587Z,97991.09
2023-05-19T12:18:29.031Z,97989.34
2023-05-19T12:20:58.621Z,97987.25
2023-05-19T12:23:31.922Z,97990.00
2023-05-19T12:26:02.293Z,97983.22
2023-05-19T12:28:35.074Z,97984.31
2023-05-19T12:31:04.670Z,97982.25
2023-05-19T12:33:36.008Z,97977.84
2023-05-19T12:36:06.912Z,97983.31
2023-05-19T12:38:38.487Z,97970.56
2023-05-19T12:41:08.317Z,97983.09
2023-05-19T12:43:38.822Z,97978.50
2023-05-19T12:46:15.360Z,97978.47
2023-05-19T12:48:45.991Z,97978.41
2023-05-19T12:51:21.839Z,97977.59
2023-05-19T12:53:53.037Z,97978.34
2023-05-19T12:56:23.368Z,97983.75
2023-05-19T12:58:59.571Z,97973.47
2023-05-19T13:01:32.548Z,97981.22
2023-05-19T13:04:04.582Z,97970.94
2023-05-19T13:06:35.958Z,97966.13
2023-05-19T13:09:05.358Z,97974.22
2023-05-19T13:11:34.944Z,97966.50
2023-05-19T13:14:04.357Z,97964.69
2023-05-19T13:16:34.606Z,97960.69
2023-05-19T13:19:06.197Z,97959.00
2023-05-19T13:21:36.876Z,97955.78
2023-05-19T13:24:06.731Z,97954.19
2023-05-19T13:26:36.195Z,97957.72
2023-05-19T13:29:05.786Z,97958.09
2023-05-19T13:31:35.356Z,97965.53
2023-05-19T13:34:05.598Z,97969.44
2023-05-19T13:36:36.204Z,97966.47
2023-05-19T13:39:06.531Z,97968.69
2023-05-19T13:41:36.911Z,97966.50
2023-05-19T13:44:06.054Z,97971.06
2023-05-19T13:46:44.926Z,97965.00
2023-05-19T13:49:15.845Z,97963.78
2023-05-19T13:51:45.568Z,97969.75
2023-05-19T13:54:14.796Z,97964.38
2023-05-19T13:56:45.951Z,97961.19
2023-05-19T13:59:15.448Z,97970.41
2023-05-19T14:01:46.698Z,97971.13
2023-05-19T14:04:19.686Z,97969.16
2023-05-19T14:06:49.839Z,97979.59
2023-05-19T14:09:19.031Z,97975.94
2023-05-19T14:11:49.459Z,97982.59
2023-05-19T14:14:19.257Z,97973.47
2023-05-19T14:16:48.826Z,97977.81
2023-05-19T14:19:18.329Z,97982.41
2023-05-19T14:21:51.093Z,97978.41
2023-05-19T14:24:21.286Z,97977.63
2023-05-19T14:26:51.112Z,97987.69
2023-05-19T14:29:21.201Z,97990.69
2023-05-19T14:31:50.716Z,97995.59
2023-05-19T14:34:22.119Z,97992.28
2023-05-19T14:36:52.174Z,97994.03
2023-05-19T14:39:21.809Z,97997.16
2023-05-19T14:41:53.145Z,98002.88
2023-05-19T14:44:22.619Z,98004.59
2023-05-19T14:46:51.992Z,98009.88
2023-05-19T14:49:21.453Z,98011.28
2023-05-19T14:51:50.787Z,98019.03
2023-05-19T14:54:20.414Z,98022.38
2023-05-19T14:56:49.856Z,98023.44
2023-05-19T14:59:19.840Z,98026.84
2023-05-19T15:01:49.108Z,98027.66
2023-05-19T15:04:18.932Z,98029.72
2023-05-19T15:06:55.029Z,98038.97
2023-05-19T15:09:35.066Z,98048.22
2023-05-19T15:12:04.443Z,98046.63
2023-05-19T15:14:34.608Z,98055.16
2023-05-19T15:17:04.051Z,98058.81
2023-05-19T15:19:33.853Z,98064.28
2023-05-19T15:22:03.590Z,98065.78
2023-05-19T15:24:32.915Z,98070.69
2023-05-19T15:27:03.141Z,98070.34
2023-05-19T15:29:32.754Z,98077.78
2023-05-19T15:32:02.141Z,98086.31
2023-05-19T15:34:35.898Z,98088.50
2023-05-19T15:37:06.001Z,98098.09
2023-05-19T15:39:36.014Z,98094.78
2023-05-19T15:42:05.736Z,98101.41
2023-05-19T15:44:35.187Z,98108.69
2023-05-19T15:47:04.965Z,98115.88
2023-05-19T15:49:34.554Z,98114.84
2023-05-19T15:52:04.873Z,98117.47
2023-05-19T15:54:34.349Z,98115.84
2023-05-19T15:57:03.533Z,98116.22
2023-05-19T15:59:33.721Z,98119.16
2023-05-19T16:02:03.706Z,98121.09
2023-05-19T16:04:33.049Z,98128.03
2023-05-19T16:07:02.490Z,98130.41
2023-05-19T16:09:31.776Z,98131.78
2023-05-19T16:12:01.516Z,98137.13
2023-05-19T16:14:34.507Z,98140.53
2023-05-19T16:17:12.426Z,98138.50
2023-05-19T16:19:42.224Z,98148.03
2023-05-19T16:22:11.820Z,98148.50
2023-05-19T16:24:41.267Z,98142.88
2023-05-19T16:27:11.335Z,98152.25
2023-05-19T16:29:41.322Z,98154.06
2023-05-19T16:32:10.655Z,98147.00
2023-05-19T16:34:40.170Z,98147.44
2023-05-19T16:37:09.504Z,98146.53
2023-05-19T16:39:38.820Z,98142.41
2023-05-19T16:42:08.316Z,98136.03
2023-05-19T16:44:37.619Z,98139.09
2023-05-19T16:47:07.920Z,98137.25
2023-05-19T16:49:37.351Z,98129.53
2023-05-19T16:52:06.995Z,98129.91
2023-05-19T16:54:36.804Z,98136.38
2023-05-19T16:57:06.925Z,98131.44
2023-05-19T16:59:36.404Z,98129.69
2023-05-19T17:02:06.059Z,98124.91
2023-05-19T17:04:35.963Z,98125.91
2023-05-19T17:07:06.047Z,98123.38
2023-05-19T17:09:35.670Z,98134.19
2023-05-19T17:12:05.887Z,98128.94
2023-05-19T17:14:36.111Z,98133.47
2023-05-19T17:17:06.318Z,98122.53
2023-05-19T17:19:36.969Z,98124.47
2023-05-19T17:22:06.794Z,98114.41
2023-05-19T17:24:36.253Z,98110.06
2023-05-19T17:27:07.067Z,98113.75
2023-05-19T17:29:37.326Z,98111.09
2023-05-19T17:32:07.527Z,98111.28
2023-05-19T17:34:37.263Z,98110.50
2023-05-19T17:37:07.778Z,98105.56
2023-05-19T17:39:37.725Z,98111.69
2023-05-19T17:42:08.961Z,98100.97
2023-05-19T17:44:39.295Z,98098.56
2023-05-19T17:47:09.516Z,98102.28
2023-05-19T17:49:41.533Z,98095.09
2023-05-19T17:52:12.156Z,98095.53
2023-05-19T17:54:42.330Z,98095.41
2023-05-19T17:57:16.488Z,98090.94
2023-05-19T17:59:46.932Z,98088.41
2023-05-19T18:02:16.960Z,98085.88
2023-05-19T18:04:47.450Z,98081.19
2023-05-19T18:07:17.982Z,98086.19
2023-05-19T18:09:49.133Z,98089.72
2023-05-19T18:12:19.641Z,98081.38
2023-05-19T18:14:49.618Z,98085.56
2023-05-19T18:17:19.392Z,98074.03
2023-05-19T18:19:50.977Z,98073.88
2023-05-19T18:22:20.946Z,98076.63
2023-05-19T18:24:51.052Z,98070.53
2023-05-19T18:27:21.626Z,98079.16
2023-05-19T18:29:51.854Z,98074.38
2023-05-19T18:32:22.231Z,98060.91
2023-05-19T18:34:52.177Z,98068.13
2023-05-19T18:37:22.335Z,98071.47
2023-05-19T18:39:53.199Z,98077.06
2023-05-19T18:42:23.639Z,98111.84
2023-05-19T18:44:53.910Z,98119.88
2023-05-19T18:47:24.481Z,98129.31
2023-05-19T18:49:54.380Z,98117.78
2023-05-19T18:52:24.115Z,98108.06
2023-05-19T18:54:54.728Z,98117.84
2023-05-19T18:57:24.881Z,98115.94
2023-05-19T18:59:55.064Z,98115.63
2023-05-19T19:02:24.676Z,98109.34
2023-05-19T19:04:54.608Z,98100.97
2023-05-19T19:07:27.996Z,98093.78
2023-05-19T19:09:57.492Z,98094.41
2023-05-19T19:12:27.574Z,98096.88
2023-05-19T19:14:57.738Z,98097.19
2023-05-19T19:17:27.979Z,98092.09
2023-05-19T19:19:57.727Z,98088.06
2023-05-19T19:22:27.725Z,98086.66
2023-05-19T19:24:57.162Z,98077.84
2023-05-19T19:27:32.438Z,98080.59
2023-05-19T19:30:02.902Z,98085.56
2023-05-19T19:32:33.681Z,98078.16
2023-05-19T19:35:03.314Z,98081.22
2023-05-19T19:37:33.459Z,98082.72
2023-05-19T19:40:03.171Z,98081.50
2023-05-19T19:42:32.941Z,98083.66
2023-05-19T19:45:02.691Z,98079.31
2023-05-19T19:47:31.945Z,98085.88
2023-05-19T19:50:03.825Z,98078.38
2023-05-19T19:52:33.612Z,98077.72
2023-05-19T19:55:03.638Z,98074.50
2023-05-19T19:57:35.167Z,98072.25
2023-05-19T20:00:09.434Z,98067.97
2023-05-19T20:02:55.330Z,98065.25
2023-05-19T20:05:29.838Z,98060.63
2023-05-19T20:07:58.937Z,98055.69
2023-05-19T20:10:29.024Z,98051.53
2023-05-19T20:12:59.997Z,98055.88
2023-05-19T20:15:29.619Z,98048.03
2023-05-19T20:17:58.775Z,98040.53
2023-05-19T20:20:28.505Z,98045.66
2023-05-19T20:22:57.630Z,98040.06
2023-05-19T20:25:27.332Z,98037.47
2023-05-19T20:28:06.891Z,98037.00
2023-05-19T20:30:36.808Z,98032.34
2023-05-19T20:33:06.857Z,98027.84
2023-05-19T20:35:36.399Z,98029.31
2023-05-19T20:38:05.753Z,98021.31
2023-05-19T20:40:35.239Z,98019.69
2023-05-19T20:43:04.689Z,98012.19
2023-05-19T20:45:34.945Z,98011.38
2023-05-19T20:48:04.864Z,98011.06
2023-05-19T20:50:34.263Z,98004.53
2023-05-19T20:53:03.955Z,97995.88
2023-05-19T20:55:33.476Z,98002.28
2023-05-19T20:58:02.777Z,97989.16
2023-05-19T21:00:32.765Z,97992.19
2023-05-19T21:03:03.155Z,97991.25
2023-05-19T21:05:33.095Z,97979.84
2023-05-19T21:08:02.705Z,97980.81
2023-05-19T21:10:32.331Z,97973.81
2023-05-19T21:13:01.966Z,97982.09
2023-05-19T21:15:31.375Z,97974.06
2023-05-19T21:18:01.515Z,97970.72
2023-05-19T21:20:30.944Z,97968.50
2023-05-19T21:23:00.307Z,97959.53
2023-05-19T21:25:29.592Z,97951.66
2023-05-19T21:28:02.145Z,97959.03
2023-05-19T21:30:31.845Z,97954.53
2023-05-19T21:33:01.148Z,97956.81
2023-05-19T21:35:30.424Z,97957.28
2023-05-19T21:38:03.885Z,97957.28
2023-05-19T21:40:39.143Z,97956.81
2023-05-19T21:43:08.566Z,97961.44
2023-05-19T21:45:38.996Z,97966.22
2023-05-19T21:48:08.519Z,97959.69
2023-05-19T21:50:38.786Z,97953.94
2023-05-19T21:53:08.266Z,97948.78
2023-05-19T21:55:37.438Z,97960.63
2023-05-19T21:58:07.153Z,97959.53
2023-05-19T22:00:37.647Z,97956.94
2023-05-19T22:03:07.952Z,97956.00
2023-05-19T22:05:39.157Z,97954.38
2023-05-19T22:08:09.459Z,97962.38
2023-05-19T22:10:38.900Z,97966.84
2023-05-19T22:13:08.629Z,97963.34
2023-05-19T22:15:38.912Z,97963.00
2023-05-19T22:18:08.462Z,97959.31
2023-05-19T22:20:38.501Z,97962.19
2023-05-19T22:23:08.757Z,97960.59
2023-05-19T22:25:37.976Z,97958.19
2023-05-19T22:28:09.269Z,97948.59
2023-05-19T22:30:41.301Z,97951.31
2023-05-19T22:33:11.558Z,97945.09
2023-05-19T22:35:41.422Z,97958.19
2023-05-19T22:38:10.893Z,97955.97
2023-05-19T22:40:40.692Z,97950.69
2023-05-19T22:43:09.817Z,97943.94
2023-05-19T22:45:39.366Z,97938.50
2023-05-19T22:48:08.779Z,97933.75
2023-05-19T22:50:38.070Z,97938.84
2023-05-19T22:53:07.154Z,97937.41
2023-05-19T22:55:36.781Z,97947.00
2023-05-19T22:58:07.415Z,97949.88
2023-05-19T23:00:38.072Z,97951.66
2023-05-19T23:03:07.511Z,97946.84
2023-05-19T23:05:36.529Z,97955.31
2023-05-19T23:08:06.011Z,97955.31
2023-05-19T23:10:35.033Z,97957.09
2023-05-19T23:13:04.345Z,97958.47
2023-05-19T23:15:33.917Z,97949.22
2023-05-19T23:18:08.130Z,97956.44
2023-05-19T23:20:37.624Z,97954.78
2023-05-19T23:23:06.840Z,97949.66
2023-05-19T23:25:36.376Z,97956.34
2023-05-19T23:28:05.987Z,97964.81
2023-05-19T23:30:38.742Z,97964.81
2023-05-19T23:33:08.429Z,97961.94
2023-05-19T23:35:37.836Z,97967.03
2023-05-19T23:38:07.224Z,97958.09
2023-05-19T23:40:36.952Z,97955.53
2023-05-19T23:43:06.398Z,97959.50
2023-05-19T23:45:36.433Z,97963.50
2023-05-19T23:48:06.611Z,97955.00
2023-05-19T23:50:36.083Z,97963.75
2023-05-19T23:53:05.461Z,97962.31
2023-05-19T23:55:34.787Z,97957.06
2023-05-19T23:58:05.018Z,97960.22
